Time;durP1;ratioP1;P1;durP2;ratioP2;P2;SDS_P1;SDS_P2;PMS_P1;PMS_P2;Temp;Humidity;BMP_temperature;BMP_pressure;BME280_temperature;BME280_humidity;BME280_pressure;Samples;Min_cycle;Max_cycle;Signal;HPM_P1;HPM_P2
2023/03/25 00:02:06;;;;;;;;;;;6.90;99.90;;;;;;5039010;28;19909;-83
2023/03/25 00:04:34;;;;;;;;;;;6.90;99.90;;;;;;5022541;28;19967;-83
2023/03/25 00:07:00;;;;;;;;;;;6.90;99.90;;;;;;5022372;28;19935;-83
2023/03/25 00:09:26;;;;;;;;;;;7.00;99.90;;;;;;5056376;28;20003;-83
2023/03/25 00:11:51;;;;;;;;;;;7.00;99.90;;;;;;5021997;28;19952;-83
2023/03/25 00:14:18;;;;;;;;;;;7.00;99.90;;;;;;5056626;28;19931;-83
2023/03/25 00:16:47;;;;;;;;;;;7.10;99.90;;;;;;5038377;28;20357;-83
2023/03/25 00:19:16;;;;;;;;;;;7.10;99.90;;;;;;5038171;28;19940;-83
2023/03/25 00:21:45;;;;;;;;;;;7.10;99.90;;;;;;5056182;28;20388;-83
2023/03/25 00:24:16;;;;;;;;;;;7.10;99.90;;;;;;5038125;28;20023;-83
2023/03/25 00:26:47;;;;;;;;;;;7.00;99.90;;;;;;5038509;28;19988;-83
2023/03/25 00:29:13;;;;;;;;;;;7.00;99.90;;;;;;5038186;28;19923;-83
2023/03/25 00:31:39;;;;;;;;;;;7.00;99.90;;;;;;5038053;28;20039;-83
2023/03/25 00:34:08;;;;;;;;;;;6.90;99.90;;;;;;5036995;28;19966;-83
2023/03/25 00:36:37;;;;;;;;;;;6.90;99.90;;;;;;5037989;28;19908;-83
2023/03/25 00:39:03;;;;;;;;;;;6.90;99.90;;;;;;5022286;28;19913;-83
2023/03/25 00:41:29;;;;;;;;;;;6.90;99.90;;;;;;5038394;28;19939;-83
2023/03/25 00:43:55;;;;;;;;;;;6.90;99.90;;;;;;5021649;28;19912;-83
2023/03/25 00:46:22;;;;;;;;;;;6.80;99.90;;;;;;5037835;28;19920;-83
2023/03/25 00:48:47;;;;;;;;;;;6.80;99.90;;;;;;5037970;28;19920;-83
2023/03/25 00:51:18;;;;;;;;;;;6.80;99.90;;;;;;5021575;28;19924;-83
2023/03/25 00:53:44;;;;;;;;;;;6.70;99.90;;;;;;5056547;28;19958;-83
2023/03/25 00:56:11;;;;;;;;;;;6.70;99.90;;;;;;5021316;28;20389;-83
2023/03/25 00:58:36;;;;;;;;;;;6.70;99.90;;;;;;5021262;28;19962;-83
2023/03/25 01:01:09;;;;;;;;;;;6.70;99.90;;;;;;5037707;28;19917;-83
2023/03/25 01:03:36;;;;;;;;;;;6.70;99.90;;;;;;5055571;28;19915;-83
2023/03/25 01:06:02;;;;;;;;;;;6.70;99.90;;;;;;5055606;28;20019;-83
2023/03/25 01:08:28;;;;;;;;;;;6.70;99.90;;;;;;5055462;28;19909;-83
2023/03/25 01:10:54;;;;;;;;;;;6.70;99.90;;;;;;5037735;28;19916;-83
2023/03/25 01:13:20;;;;;;;;;;;6.60;99.90;;;;;;5037555;28;19912;-83
2023/03/25 01:15:46;;;;;;;;;;;6.50;99.90;;;;;;5037533;28;19916;-83
2023/03/25 01:18:12;;;;;;;;;;;6.40;99.90;;;;;;5020945;28;19913;-84
2023/03/25 01:20:40;;;;;;;;;;;6.40;99.90;;;;;;5036961;28;19942;-83
2023/03/25 01:23:08;;;;;;;;;;;6.20;99.90;;;;;;5037333;28;19916;-83
2023/03/25 01:25:34;;;;;;;;;;;6.10;99.90;;;;;;5020875;28;19912;-83
2023/03/25 01:28:01;;;;;;;;;;;6.10;99.90;;;;;;5037320;28;19927;-83
2023/03/25 01:30:26;;;;;;;;;;;6.10;99.90;;;;;;5036978;28;19940;-83
2023/03/25 01:32:52;;;;;;;;;;;6.10;99.90;;;;;;5037010;28;19909;-83
2023/03/25 01:35:18;;;;;;;;;;;6.10;99.90;;;;;;5020720;28;19916;-83
2023/03/25 01:37:45;;;;;;;;;;;6.00;99.90;;;;;;5020309;28;19913;-83
2023/03/25 01:40:16;;;;;;;;;;;5.90;99.90;;;;;;5036832;28;20280;-83
2023/03/25 01:42:42;;;;;;;;;;;5.80;99.90;;;;;;5036854;28;19913;-83
2023/03/25 01:45:34;;;;;;;;;;;5.80;99.90;;;;;;5020149;28;20229;-83
2023/03/25 01:48:05;;;;;;;;;;;5.80;99.90;;;;;;5033172;28;19940;-83
2023/03/25 01:50:32;;;;;;;;;;;5.70;99.90;;;;;;5054970;28;19912;-83
2023/03/25 01:52:58;;;;;;;;;;;5.60;99.90;;;;;;5036832;28;19944;-82
2023/03/25 01:55:26;;;;;;;;;;;5.60;99.90;;;;;;5037190;28;19912;-84
2023/03/25 01:57:54;;;;;;;;;;;5.50;99.90;;;;;;5036293;28;19963;-83
2023/03/25 02:00:20;;;;;;;;;;;5.40;99.90;;;;;;5036121;28;20384;-83
2023/03/25 02:02:46;;;;;;;;;;;5.40;99.90;;;;;;5036081;28;20327;-83
2023/03/25 02:05:16;;;;;;;;;;;5.40;99.90;;;;;;5019820;28;19920;-83
2023/03/25 02:07:45;;;;;;;;;;;5.30;99.90;;;;;;5053994;28;20003;-83
2023/03/25 02:10:11;;;;;;;;;;;5.20;99.90;;;;;;5036236;28;19919;-83
2023/03/25 02:12:36;;;;;;;;;;;5.20;99.90;;;;;;5019911;28;20007;-83
2023/03/25 02:15:04;;;;;;;;;;;5.20;99.90;;;;;;5036132;28;19909;-83
2023/03/25 02:17:30;;;;;;;;;;;5.20;99.90;;;;;;5036077;28;19981;-83
2023/03/25 02:20:10;;;;;;;;;;;5.20;99.90;;;;;;5036375;28;19999;-83
2023/03/25 02:22:38;;;;;;;;;;;5.20;99.90;;;;;;5036160;28;20012;-82
2023/03/25 02:25:12;;;;;;;;;;;5.30;99.90;;;;;;5035261;28;19963;-83
2023/03/25 02:28:00;;;;;;;;;;;5.30;99.90;;;;;;5036205;28;20362;-83
2023/03/25 02:30:35;;;;;;;;;;;5.40;99.90;;;;;;5054085;28;19924;-83
2023/03/25 02:33:01;;;;;;;;;;;5.40;99.90;;;;;;5054081;28;19948;-83
2023/03/25 02:35:32;;;;;;;;;;;5.30;99.90;;;;;;5035951;28;20337;-83
2023/03/25 02:38:01;;;;;;;;;;;5.30;99.90;;;;;;5036314;28;20266;-82
2023/03/25 02:40:32;;;;;;;;;;;5.40;99.90;;;;;;5036365;28;19947;-83
2023/03/25 02:43:00;;;;;;;;;;;5.40;99.90;;;;;;5036577;28;19963;-83
2023/03/25 02:45:30;;;;;;;;;;;5.30;99.90;;;;;;5036372;28;19908;-83
2023/03/25 02:47:59;;;;;;;;;;;5.40;99.90;;;;;;5036694;28;20357;-83
2023/03/25 02:50:27;;;;;;;;;;;5.40;99.90;;;;;;5054151;28;19962;-83
2023/03/25 02:52:55;;;;;;;;;;;5.40;99.90;;;;;;5036200;28;19995;-83
2023/03/25 02:55:22;;;;;;;;;;;5.40;99.90;;;;;;5036164;28;19920;-83
2023/03/25 02:57:51;;;;;;;;;;;5.40;99.90;;;;;;5039919;28;20381;-83
2023/03/25 03:00:19;;;;;;;;;;;5.40;99.90;;;;;;5039959;28;19954;-83
2023/03/25 03:02:58;;;;;;;;;;;5.50;99.90;;;;;;5040045;28;20277;-83
2023/03/25 03:05:28;;;;;;;;;;;5.50;99.90;;;;;;5040153;28;20365;-83
2023/03/25 03:08:03;;;;;;;;;;;5.40;99.90;;;;;;5039727;28;19909;-83
2023/03/25 03:10:42;;;;;;;;;;;5.30;99.90;;;;;;5039843;28;19998;-83
2023/03/25 03:13:28;;;;;;;;;;;5.30;99.90;;;;;;5057603;28;19909;-83
2023/03/25 03:15:53;;;;;;;;;;;5.30;99.90;;;;;;5039282;28;19908;-83
2023/03/25 03:18:36;;;;;;;;;;;5.30;99.90;;;;;;5039803;28;20456;-83
2023/03/25 03:21:10;;;;;;;;;;;5.30;99.90;;;;;;5039702;28;19912;-83
2023/03/25 03:23:41;;;;;;;;;;;5.30;99.90;;;;;;5058271;28;19909;-82
2023/03/25 03:26:23;;;;;;;;;;;5.30;99.90;;;;;;5039811;28;20354;-83
2023/03/25 03:28:54;;;;;;;;;;;5.30;99.90;;;;;;5039603;28;19999;-83
2023/03/25 03:31:31;;;;;;;;;;;5.30;99.90;;;;;;5057212;28;19916;-83
2023/03/25 03:34:01;;;;;;;;;;;5.30;99.90;;;;;;5057209;28;19917;-83
2023/03/25 03:36:36;;;;;;;;;;;5.40;99.90;;;;;;5039669;28;20424;-83
2023/03/25 03:39:06;;;;;;;;;;;5.40;99.90;;;;;;5039493;28;19909;-83
2023/03/25 03:41:33;;;;;;;;;;;5.40;99.90;;;;;;5039101;28;19913;-83
2023/03/25 03:44:01;;;;;;;;;;;5.40;99.90;;;;;;5039409;28;19923;-83
2023/03/25 03:46:30;;;;;;;;;;;5.40;99.90;;;;;;5057257;28;19955;-83
2023/03/25 03:48:57;;;;;;;;;;;5.40;99.90;;;;;;5039169;28;19959;-83
2023/03/25 03:51:28;;;;;;;;;;;5.50;99.90;;;;;;5057398;28;20388;-83
2023/03/25 03:54:03;;;;;;;;;;;5.50;99.90;;;;;;5039903;28;20356;-83
2023/03/25 03:56:52;;;;;;;;;;;5.50;99.90;;;;;;5056698;28;19909;-83
2023/03/25 03:59:36;;;;;;;;;;;5.60;99.90;;;;;;5038472;28;19964;-82
2023/03/25 04:02:05;;;;;;;;;;;5.60;99.90;;;;;;5056530;28;19909;-82
2023/03/25 04:04:33;;;;;;;;;;;5.60;99.90;;;;;;5056147;28;19913;-83
2023/03/25 04:07:16;;;;;;;;;;;5.60;99.90;;;;;;5038958;28;19955;-82
2023/03/25 04:10:01;;;;;;;;;;;5.50;99.90;;;;;;5038087;28;19913;-82
2023/03/25 04:12:28;;;;;;;;;;;5.50;99.90;;;;;;5056493;28;19908;-83
2023/03/25 04:14:55;;;;;;;;;;;5.40;99.90;;;;;;5038250;28;19909;-82
2023/03/25 04:17:20;;;;;;;;;;;5.40;99.90;;;;;;5038367;28;19975;-82
2023/03/25 04:19:47;;;;;;;;;;;5.40;99.90;;;;;;5038546;28;19916;-83
2023/03/25 04:22:15;;;;;;;;;;;5.40;99.90;;;;;;5021847;28;19944;-83
2023/03/25 04:24:41;;;;;;;;;;;5.40;99.90;;;;;;5038029;28;20019;-82
2023/03/25 04:27:08;;;;;;;;;;;5.40;99.90;;;;;;5021733;28;19913;-83
2023/03/25 04:29:34;;;;;;;;;;;5.50;99.90;;;;;;5055980;28;19917;-82
2023/03/25 04:32:00;;;;;;;;;;;5.50;99.90;;;;;;5038217;28;19916;-83
2023/03/25 04:34:26;;;;;;;;;;;5.50;99.90;;;;;;5037943;28;19909;-82
2023/03/25 04:36:52;;;;;;;;;;;5.60;99.90;;;;;;5038117;28;19909;-83
2023/03/25 04:39:21;;;;;;;;;;;5.50;99.90;;;;;;5021423;28;20003;-83
2023/03/25 04:41:50;;;;;;;;;;;5.60;99.90;;;;;;5056161;28;20284;-83
2023/03/25 04:44:16;;;;;;;;;;;5.60;99.90;;;;;;5021504;28;19916;-83
2023/03/25 04:46:41;;;;;;;;;;;5.60;99.90;;;;;;5037929;28;19917;-83
2023/03/25 04:49:12;;;;;;;;;;;5.60;99.90;;;;;;5055687;28;19912;-83
2023/03/25 04:51:40;;;;;;;;;;;5.60;99.90;;;;;;5037652;28;19909;-82
2023/03/25 04:54:06;;;;;;;;;;;5.50;99.90;;;;;;5037620;28;19909;-83
2023/03/25 04:56:32;;;;;;;;;;;5.50;99.90;;;;;;5021428;28;20276;-83
2023/03/25 04:58:57;;;;;;;;;;;5.50;99.90;;;;;;5021292;28;19920;-83
2023/03/25 05:01:29;;;;;;;;;;;5.50;99.90;;;;;;5021115;28;19921;-83
2023/03/25 05:03:56;;;;;;;;;;;5.40;99.90;;;;;;5037589;28;20331;-83
2023/03/25 05:06:22;;;;;;;;;;;5.40;99.90;;;;;;5037733;28;19909;-82
2023/03/25 05:08:48;;;;;;;;;;;5.40;99.90;;;;;;5037385;28;20327;-80
2023/03/25 05:11:13;;;;;;;;;;;5.40;99.90;;;;;;5037333;28;20387;-81
2023/03/25 05:13:39;;;;;;;;;;;5.50;99.90;;;;;;5037379;28;19920;-81
2023/03/25 05:16:05;;;;;;;;;;;5.50;99.90;;;;;;5054500;28;20388;-81
2023/03/25 05:18:30;;;;;;;;;;;5.50;99.90;;;;;;5037196;28;19917;-81
2023/03/25 05:20:56;;;;;;;;;;;5.50;99.90;;;;;;5054514;28;20351;-81
2023/03/25 05:23:22;;;;;;;;;;;5.50;99.90;;;;;;5037524;28;19919;-81
2023/03/25 05:25:49;;;;;;;;;;;5.40;99.90;;;;;;5027357;28;20357;-80
2023/03/25 05:28:15;;;;;;;;;;;5.40;99.90;;;;;;5018205;28;19917;-81
2023/03/25 05:30:44;;;;;;;;;;;5.50;99.90;;;;;;5042301;28;20357;-80
2023/03/25 05:33:10;;;;;;;;;;;5.50;99.90;;;;;;5055188;28;20292;-81
2023/03/25 05:35:36;;;;;;;;;;;5.50;99.90;;;;;;5020405;28;19957;-81
2023/03/25 05:38:03;;;;;;;;;;;5.50;99.90;;;;;;5055075;28;19909;-81
2023/03/25 05:40:28;;;;;;;;;;;5.50;99.90;;;;;;5054396;28;19923;-81
2023/03/25 05:42:54;;;;;;;;;;;5.50;99.90;;;;;;5055228;28;19909;-81
2023/03/25 05:45:21;;;;;;;;;;;5.50;99.90;;;;;;5037275;28;19913;-81
2023/03/25 05:47:46;;;;;;;;;;;5.50;99.90;;;;;;5020978;28;19912;-81
2023/03/25 05:50:15;;;;;;;;;;;5.50;99.90;;;;;;5054814;28;20009;-81
2023/03/25 05:52:44;;;;;;;;;;;5.60;99.90;;;;;;5021210;28;19981;-81
2023/03/25 05:55:15;;;;;;;;;;;5.60;99.90;;;;;;5036007;28;19909;-81
2023/03/25 05:57:40;;;;;;;;;;;5.60;99.90;;;;;;5040299;28;20016;-82
2023/03/25 06:00:07;;;;;;;;;;;5.60;99.90;;;;;;5036507;28;20353;-81
2023/03/25 06:02:34;;;;;;;;;;;5.60;99.90;;;;;;5020632;28;19936;-81
2023/03/25 06:05:02;;;;;;;;;;;5.60;99.90;;;;;;5054647;28;19916;-81
2023/03/25 06:07:28;;;;;;;;;;;5.60;99.90;;;;;;5037032;28;19920;-80
2023/03/25 06:09:54;;;;;;;;;;;5.70;99.90;;;;;;5036727;28;19955;-80
2023/03/25 06:12:21;;;;;;;;;;;5.70;99.90;;;;;;5054088;28;19970;-81
2023/03/25 06:14:47;;;;;;;;;;;5.70;99.90;;;;;;5036645;28;19909;-81
2023/03/25 06:17:13;;;;;;;;;;;5.70;99.90;;;;;;5054617;28;19909;-80
2023/03/25 06:19:38;;;;;;;;;;;5.70;99.90;;;;;;5020429;28;19934;-81
2023/03/25 06:22:08;;;;;;;;;;;5.70;99.90;;;;;;5036919;28;19913;-81
2023/03/25 06:24:37;;;;;;;;;;;5.70;99.90;;;;;;5054437;28;20368;-81
2023/03/25 06:27:08;;;;;;;;;;;5.70;99.90;;;;;;5054143;28;20008;-80
2023/03/25 06:29:35;;;;;;;;;;;5.70;99.90;;;;;;5036081;28;19924;-81
2023/03/25 06:32:02;;;;;;;;;;;5.70;99.90;;;;;;5057338;28;19913;-81
2023/03/25 06:34:27;;;;;;;;;;;5.80;99.90;;;;;;5040384;28;19913;-80
2023/03/25 06:36:53;;;;;;;;;;;5.80;99.90;;;;;;5040935;28;19909;-80
2023/03/25 06:39:19;;;;;;;;;;;5.80;99.90;;;;;;5058068;28;20331;-80
2023/03/25 06:41:45;;;;;;;;;;;5.80;99.90;;;;;;5024028;28;19921;-80
2023/03/25 06:44:10;;;;;;;;;;;5.80;99.90;;;;;;5024181;28;20408;-80
2023/03/25 06:46:36;;;;;;;;;;;5.80;99.90;;;;;;5059061;28;19980;-80
2023/03/25 06:49:02;;;;;;;;;;;5.80;99.90;;;;;;5024032;28;20288;-80
2023/03/25 06:51:27;;;;;;;;;;;5.80;99.90;;;;;;5024218;28;20007;-80
2023/03/25 06:53:53;;;;;;;;;;;5.80;99.90;;;;;;5040673;28;20335;-80
2023/03/25 06:56:18;;;;;;;;;;;5.80;99.90;;;;;;5040459;28;19917;-80
2023/03/25 06:58:44;;;;;;;;;;;5.80;99.90;;;;;;5058051;28;19916;-81
2023/03/25 07:01:10;;;;;;;;;;;5.90;99.90;;;;;;5040822;28;19913;-80
2023/03/25 07:03:36;;;;;;;;;;;5.90;99.90;;;;;;5040677;28;20368;-80
2023/03/25 07:06:02;;;;;;;;;;;5.90;99.90;;;;;;5040846;28;19909;-80
2023/03/25 07:08:28;;;;;;;;;;;5.90;99.90;;;;;;5040265;28;19909;-80
2023/03/25 07:10:59;;;;;;;;;;;5.90;99.90;;;;;;5040487;28;19931;-80
2023/03/25 07:13:24;;;;;;;;;;;6.00;99.90;;;;;;5040033;28;20436;-80
2023/03/25 07:15:53;;;;;;;;;;;6.00;99.90;;;;;;5058670;28;19948;-79
2023/03/25 07:18:19;;;;;;;;;;;6.00;99.90;;;;;;5058988;28;20011;-80
2023/03/25 07:20:44;;;;;;;;;;;6.00;99.90;;;;;;5023584;28;19949;-81
2023/03/25 07:23:10;;;;;;;;;;;6.10;99.90;;;;;;5023662;28;20011;-80
2023/03/25 07:25:36;;;;;;;;;;;6.10;99.90;;;;;;5023434;28;19912;-80
2023/03/25 07:28:01;;;;;;;;;;;6.20;99.90;;;;;;5039454;28;20491;-80
2023/03/25 07:30:27;;;;;;;;;;;6.20;99.90;;;;;;5056503;28;20353;-80
2023/03/25 07:32:52;;;;;;;;;;;6.30;99.90;;;;;;5057219;28;19913;-80
2023/03/25 07:35:18;;;;;;;;;;;6.30;99.90;;;;;;5057560;28;19913;-80
2023/03/25 07:37:44;;;;;;;;;;;6.40;99.90;;;;;;5039981;28;19913;-81
2023/03/25 07:40:10;;;;;;;;;;;6.40;99.90;;;;;;5039276;28;19944;-80
2023/03/25 07:42:36;;;;;;;;;;;6.50;99.90;;;;;;5039253;28;19913;-81
2023/03/25 07:45:03;;;;;;;;;;;6.50;99.90;;;;;;5057632;28;19909;-80
2023/03/25 07:47:28;;;;;;;;;;;6.50;99.90;;;;;;5057855;28;19909;-80
2023/03/25 07:49:54;;;;;;;;;;;6.50;99.90;;;;;;5023143;28;19920;-81
2023/03/25 07:52:20;;;;;;;;;;;6.60;99.90;;;;;;5037930;28;19913;-81
2023/03/25 07:54:45;;;;;;;;;;;6.70;99.90;;;;;;5021212;28;19913;-80
2023/03/25 07:57:12;;;;;;;;;;;6.70;99.90;;;;;;5021760;28;20454;-80
2023/03/25 07:59:38;;;;;;;;;;;6.80;99.90;;;;;;5022147;28;19935;-80
2023/03/25 08:02:03;;;;;;;;;;;6.80;99.90;;;;;;5037197;28;20365;-80
2023/03/25 08:04:29;;;;;;;;;;;6.90;99.90;;;;;;5055261;28;19913;-81
2023/03/25 08:06:55;;;;;;;;;;;6.90;99.90;;;;;;5056936;28;20277;-80
2023/03/25 08:09:20;;;;;;;;;;;6.90;99.90;;;;;;5022887;28;19982;-79
2023/03/25 08:11:47;;;;;;;;;;;6.90;99.90;;;;;;5058185;28;19913;-79
2023/03/25 08:14:13;;;;;;;;;;;6.90;99.90;;;;;;5058271;28;19909;-79
2023/03/25 08:16:38;;;;;;;;;;;7.00;99.90;;;;;;5039662;28;19973;-79
2023/03/25 08:19:04;;;;;;;;;;;7.10;99.90;;;;;;5057626;28;20344;-79
2023/03/25 08:21:29;;;;;;;;;;;7.20;99.90;;;;;;5022709;28;20361;-79
2023/03/25 08:24:01;;;;;;;;;;;7.20;99.90;;;;;;5042569;28;20005;-79
2023/03/25 08:26:27;;;;;;;;;;;7.40;99.90;;;;;;5040891;28;19920;-80
2023/03/25 08:28:56;;;;;;;;;;;7.50;99.90;;;;;;5039274;28;19921;-80
2023/03/25 08:31:22;;;;;;;;;;;7.60;99.90;;;;;;5037888;28;20312;-79
2023/03/25 08:33:48;;;;;;;;;;;7.70;99.90;;;;;;5056626;28;20004;-79
2023/03/25 08:36:18;;;;;;;;;;;7.70;99.90;;;;;;5038031;28;19952;-79
2023/03/25 08:38:44;;;;;;;;;;;7.70;99.90;;;;;;5055955;28;20332;-78
2023/03/25 08:41:10;;;;;;;;;;;7.80;99.90;;;;;;5055912;28;19917;-78
2023/03/25 08:43:36;;;;;;;;;;;7.80;99.90;;;;;;5055442;28;19920;-79
2023/03/25 08:46:01;;;;;;;;;;;7.90;99.90;;;;;;5020002;28;19966;-79
2023/03/25 08:48:27;;;;;;;;;;;7.90;99.90;;;;;;5054899;28;19974;-78
2023/03/25 08:50:53;;;;;;;;;;;8.00;99.90;;;;;;5037618;28;19912;-78
2023/03/25 08:53:18;;;;;;;;;;;8.20;99.90;;;;;;5037050;28;19913;-78
2023/03/25 08:55:44;;;;;;;;;;;8.40;99.90;;;;;;5037562;28;19908;-79
2023/03/25 08:58:10;;;;;;;;;;;8.60;99.90;;;;;;5055174;28;19920;-79
2023/03/25 09:00:36;;;;;;;;;;;8.60;99.90;;;;;;5055315;28;19936;-79
2023/03/25 09:03:05;;;;;;;;;;;8.70;99.90;;;;;;5037449;28;19915;-79
2023/03/25 09:05:31;;;;;;;;;;;8.80;99.90;;;;;;5019530;28;19924;-78
2023/03/25 09:07:57;;;;;;;;;;;9.00;99.90;;;;;;5033725;28;19974;-79
2023/03/25 09:10:22;;;;;;;;;;;9.10;99.90;;;;;;5053076;28;19978;-78
2023/03/25 09:12:48;;;;;;;;;;;9.20;99.90;;;;;;5053152;28;20618;-78
2023/03/25 09:15:14;;;;;;;;;;;9.30;99.90;;;;;;5019235;28;19912;-79
2023/03/25 09:17:41;;;;;;;;;;;9.40;99.90;;;;;;5052993;28;19962;-79
2023/03/25 09:20:07;;;;;;;;;;;9.50;99.90;;;;;;5053021;28;19963;-79
2023/03/25 09:22:34;;;;;;;;;;;9.60;99.90;;;;;;5037054;28;19913;-79
2023/03/25 09:24:59;;;;;;;;;;;9.60;99.90;;;;;;5055073;28;19913;-79
2023/03/25 09:27:25;;;;;;;;;;;9.60;99.90;;;;;;5055012;28;19909;-79
2023/03/25 09:29:50;;;;;;;;;;;9.70;99.90;;;;;;5054962;28;19940;-79
2023/03/25 09:32:17;;;;;;;;;;;9.80;99.90;;;;;;5037081;28;20297;-79
2023/03/25 09:34:43;;;;;;;;;;;9.90;99.90;;;;;;5054753;28;19916;-78
2023/03/25 09:37:09;;;;;;;;;;;10.00;99.90;;;;;;5037654;28;20003;-79
2023/03/25 09:39:35;;;;;;;;;;;10.00;99.90;;;;;;5036595;28;20288;-79
2023/03/25 09:42:01;;;;;;;;;;;10.10;99.90;;;;;;5054839;28;19916;-79
2023/03/25 09:44:29;;;;;;;;;;;10.20;99.90;;;;;;5055065;28;19909;-79
2023/03/25 09:46:57;;;;;;;;;;;10.20;99.90;;;;;;5055095;28;19908;-78
2023/03/25 09:49:30;;;;;;;;;;;10.30;99.90;;;;;;5055001;28;19908;-79
2023/03/25 09:51:56;;;;;;;;;;;10.40;99.90;;;;;;5037041;28;19916;-79
2023/03/25 09:54:24;;;;;;;;;;;10.60;99.90;;;;;;5037096;28;19917;-79
2023/03/25 09:56:51;;;;;;;;;;;10.70;99.90;;;;;;5036908;28;20349;-79
2023/03/25 09:59:18;;;;;;;;;;;10.90;99.90;;;;;;5054665;28;20003;-79
2023/03/25 10:01:47;;;;;;;;;;;11.00;99.90;;;;;;5054497;28;20329;-79
2023/03/25 10:04:15;;;;;;;;;;;11.20;99.90;;;;;;5054618;28;20356;-79
2023/03/25 10:06:59;;;;;;;;;;;11.40;99.90;;;;;;5036495;28;19913;-80
2023/03/25 10:09:34;;;;;;;;;;;11.50;99.90;;;;;;5037057;28;19909;-79
2023/03/25 10:12:03;;;;;;;;;;;11.60;99.90;;;;;;5054975;28;19916;-80
2023/03/25 10:14:53;;;;;;;;;;;11.70;99.70;;;;;;5054880;28;19909;-79
2023/03/25 10:17:36;;;;;;;;;;;11.70;99.90;;;;;;5054768;28;20380;-79
2023/03/25 10:20:08;;;;;;;;;;;11.90;99.90;;;;;;5054413;28;19961;-80
2023/03/25 10:22:41;;;;;;;;;;;12.00;99.00;;;;;;5037007;28;20317;-79
2023/03/25 10:25:17;;;;;;;;;;;12.10;99.50;;;;;;5054874;28;20266;-80
2023/03/25 10:27:48;;;;;;;;;;;12.30;98.00;;;;;;5054531;28;19970;-79
2023/03/25 10:30:17;;;;;;;;;;;12.30;96.60;;;;;;5054524;28;19924;-79
2023/03/25 10:32:56;;;;;;;;;;;12.30;94.60;;;;;;5054717;28;19916;-80
2023/03/25 10:35:43;;;;;;;;;;;12.30;98.40;;;;;;5036479;28;19908;-80
2023/03/25 10:38:11;;;;;;;;;;;12.50;97.00;;;;;;5053645;28;19909;-80
2023/03/25 10:40:48;;;;;;;;;;;12.60;94.50;;;;;;5036516;28;19913;-80
2023/03/25 10:43:17;;;;;;;;;;;12.70;96.50;;;;;;5054208;28;19963;-79
2023/03/25 10:45:44;;;;;;;;;;;12.70;95.30;;;;;;5036508;28;19956;-80
2023/03/25 10:48:22;;;;;;;;;;;12.70;95.50;;;;;;5054435;28;20288;-80
2023/03/25 10:50:48;;;;;;;;;;;12.80;95.10;;;;;;5054759;28;19919;-79
2023/03/25 10:53:19;;;;;;;;;;;12.90;94.70;;;;;;5036594;28;19912;-80
2023/03/25 10:55:44;;;;;;;;;;;13.00;94.80;;;;;;5054604;28;19909;-80
2023/03/25 10:58:15;;;;;;;;;;;13.00;94.20;;;;;;5037152;28;19919;-80
2023/03/25 11:00:40;;;;;;;;;;;13.10;94.00;;;;;;5054721;28;20012;-79
2023/03/25 11:03:14;;;;;;;;;;;13.00;94.20;;;;;;5036717;28;19960;-79
2023/03/25 11:05:40;;;;;;;;;;;13.10;94.60;;;;;;5036469;28;19992;-79
2023/03/25 11:08:07;;;;;;;;;;;13.00;96.00;;;;;;5036057;28;19952;-79
2023/03/25 11:10:33;;;;;;;;;;;13.00;95.90;;;;;;5036280;28;19958;-79
2023/03/25 11:13:03;;;;;;;;;;;13.00;95.20;;;;;;5036534;28;19908;-79
2023/03/25 11:15:30;;;;;;;;;;;13.00;94.30;;;;;;5054311;28;19913;-79
2023/03/25 11:17:59;;;;;;;;;;;13.10;91.70;;;;;;5039107;28;19909;-79
2023/03/25 11:20:26;;;;;;;;;;;13.00;93.90;;;;;;5057855;28;19960;-79
2023/03/25 11:22:53;;;;;;;;;;;12.90;93.40;;;;;;5039840;28;19909;-79
2023/03/25 11:25:24;;;;;;;;;;;12.80;92.20;;;;;;5023460;28;20066;-78
2023/03/25 11:27:57;;;;;;;;;;;12.50;91.90;;;;;;5057906;28;19924;-79
2023/03/25 11:30:23;;;;;;;;;;;12.40;94.40;;;;;;5017978;23;19925;-74
2023/03/25 11:32:56;;;;;;;;;;;12.10;94.20;;;;;;5003505;28;20452;-75
2023/03/25 11:35:23;;;;;;;;;;;12.00;94.70;;;;;;4996942;28;19910;-75
2023/03/25 11:37:57;;;;;;;;;;;12.00;95.80;;;;;;4997122;28;19996;-75
2023/03/25 11:40:23;;;;;;;;;;;12.00;94.40;;;;;;4997009;28;19918;-75
2023/03/25 11:42:53;;;;;;;;;;;12.00;96.00;;;;;;4979464;28;19917;-75
2023/03/25 11:45:26;;;;;;;;;;;12.00;95.30;;;;;;4997227;28;20423;-77
2023/03/25 11:47:56;;;;;;;;;;;12.10;94.50;;;;;;4996960;28;19977;-75
2023/03/25 11:50:24;;;;;;;;;;;12.10;96.50;;;;;;4997303;28;20385;-74
2023/03/25 11:52:52;;;;;;;;;;;12.30;96.00;;;;;;4979319;28;19953;-74
2023/03/25 11:55:19;;;;;;;;;;;12.30;93.70;;;;;;4996820;28;19918;-75
2023/03/25 11:57:46;;;;;;;;;;;12.30;94.30;;;;;;4996847;28;19956;-74
2023/03/25 12:00:15;;;;;;;;;;;12.40;94.20;;;;;;4996995;28;20017;-75
2023/03/25 12:02:41;;;;;;;;;;;12.60;94.80;;;;;;4996876;28;20012;-75
2023/03/25 12:05:06;;;;;;;;;;;12.80;93.00;;;;;;4996627;28;19945;-74
2023/03/25 12:07:46;;;;;;;;;;;13.00;91.50;;;;;;4996618;28;19988;-75
2023/03/25 12:10:33;;;;;;;;;;;13.10;90.30;;;;;;4995280;28;19910;-75
2023/03/25 12:13:06;;;;;;;;;;;13.20;91.10;;;;;;4996537;28;20337;-74
2023/03/25 12:15:44;;;;;;;;;;;13.30;91.50;;;;;;4996737;28;20404;-74
2023/03/25 12:18:22;;;;;;;;;;;13.50;86.70;;;;;;4996525;28;20074;-74
2023/03/25 12:21:03;;;;;;;;;;;13.60;84.60;;;;;;4996594;28;19918;-75
2023/03/25 12:23:35;;;;;;;;;;;13.50;82.80;;;;;;4978920;28;19985;-75
2023/03/25 12:26:09;;;;;;;;;;;13.30;84.80;;;;;;4996427;28;20290;-75
2023/03/25 12:28:50;;;;;;;;;;;13.10;87.90;;;;;;4995034;28;19910;-75
2023/03/25 12:31:30;;;;;;;;;;;13.00;88.90;;;;;;4995189;28;20289;-74
2023/03/25 12:34:14;;;;;;;;;;;13.10;87.80;;;;;;4996117;28;20289;-75
2023/03/25 12:36:40;;;;;;;;;;;13.20;90.10;;;;;;4996373;28;19917;-75
2023/03/25 12:39:18;;;;;;;;;;;13.30;90.00;;;;;;4978673;28;19909;-74
2023/03/25 12:42:02;;;;;;;;;;;13.50;83.30;;;;;;4996099;28;19949;-74
2023/03/25 12:44:40;;;;;;;;;;;13.50;85.00;;;;;;4996204;28;19973;-75
2023/03/25 12:47:06;;;;;;;;;;;13.60;84.40;;;;;;4995879;28;20424;-75
2023/03/25 12:49:34;;;;;;;;;;;13.70;86.80;;;;;;4995801;28;19988;-74
2023/03/25 12:52:04;;;;;;;;;;;13.70;87.40;;;;;;4978541;28;19917;-74
2023/03/25 12:54:45;;;;;;;;;;;13.70;82.50;;;;;;4995574;28;19910;-74
2023/03/25 12:57:12;;;;;;;;;;;13.60;82.60;;;;;;4995844;28;19909;-74
2023/03/25 12:59:45;;;;;;;;;;;13.40;83.10;;;;;;4978017;28;19914;-75
2023/03/25 13:02:11;;;;;;;;;;;13.20;84.60;;;;;;4995535;28;20321;-74
2023/03/25 13:04:48;;;;;;;;;;;12.90;88.10;;;;;;4995463;28;20083;-75
2023/03/25 13:07:16;;;;;;;;;;;12.70;88.80;;;;;;4995806;28;20259;-74
2023/03/25 13:09:52;;;;;;;;;;;12.40;90.30;;;;;;4978009;28;19936;-74
2023/03/25 13:12:20;;;;;;;;;;;12.00;91.30;;;;;;4977973;28;19913;-74
2023/03/25 13:14:55;;;;;;;;;;;11.60;96.00;;;;;;4995433;28;20004;-74
2023/03/25 13:17:25;;;;;;;;;;;11.20;96.20;;;;;;4977857;28;19909;-74
2023/03/25 13:19:53;;;;;;;;;;;10.90;98.70;;;;;;4995112;28;19909;-74
2023/03/25 13:22:23;;;;;;;;;;;10.60;99.90;;;;;;4995402;28;20350;-74
2023/03/25 13:24:58;;;;;;;;;;;10.40;99.90;;;;;;4995472;28;19964;-74
2023/03/25 13:27:24;;;;;;;;;;;10.40;99.90;;;;;;4977792;28;19910;-75
2023/03/25 13:29:51;;;;;;;;;;;10.50;99.90;;;;;;4995021;28;19918;-74
2023/03/25 13:32:46;;;;;;;;;;;10.50;99.90;;;;;;4995037;28;19916;-74
2023/03/25 13:35:18;;;;;;;;;;;10.50;99.90;;;;;;4995405;28;19957;-74
2023/03/25 13:37:56;;;;;;;;;;;10.50;98.00;;;;;;4995015;28;20362;-74
2023/03/25 13:40:33;;;;;;;;;;;10.40;98.70;;;;;;4994419;28;20004;-74
2023/03/25 13:43:05;;;;;;;;;;;10.30;97.50;;;;;;4995084;28;19910;-74
2023/03/25 13:45:35;;;;;;;;;;;10.30;97.80;;;;;;4994851;28;19910;-74
2023/03/25 13:48:11;;;;;;;;;;;10.30;99.40;;;;;;4994836;28;19910;-74
2023/03/25 13:50:37;;;;;;;;;;;10.40;99.20;;;;;;4995048;28;20370;-74
2023/03/25 13:53:08;;;;;;;;;;;10.40;97.70;;;;;;4994638;28;19964;-74
2023/03/25 13:55:35;;;;;;;;;;;10.50;97.50;;;;;;4994834;28;19910;-74
2023/03/25 13:58:20;;;;;;;;;;;10.50;97.00;;;;;;4994723;28;20350;-74
2023/03/25 14:00:58;;;;;;;;;;;10.60;97.20;;;;;;4994932;28;20012;-74
2023/03/25 14:03:26;;;;;;;;;;;10.60;97.70;;;;;;4994909;28;20001;-74
2023/03/25 14:06:19;;;;;;;;;;;10.70;97.40;;;;;;4994940;28;19961;-74
2023/03/25 14:08:47;;;;;;;;;;;10.70;97.80;;;;;;4948474;28;19910;-74
2023/03/25 14:11:13;;;;;;;;;;;10.80;97.10;;;;;;4994581;28;19933;-75
2023/03/25 14:13:42;;;;;;;;;;;10.80;98.10;;;;;;4994492;28;19914;-74
2023/03/25 14:16:10;;;;;;;;;;;10.90;97.60;;;;;;4994916;28;19941;-74
2023/03/25 14:18:47;;;;;;;;;;;10.90;98.30;;;;;;4994535;28;19917;-75
2023/03/25 14:21:31;;;;;;;;;;;11.00;97.50;;;;;;4994751;28;20004;-74
2023/03/25 14:24:01;;;;;;;;;;;11.00;98.50;;;;;;4994425;28;20341;-74
2023/03/25 14:26:27;;;;;;;;;;;11.00;99.60;;;;;;4976963;28;19917;-74
2023/03/25 14:28:53;;;;;;;;;;;10.90;99.90;;;;;;4994487;28;19913;-75
2023/03/25 14:31:22;;;;;;;;;;;10.90;99.90;;;;;;4994587;28;19914;-74
2023/03/25 14:33:59;;;;;;;;;;;10.80;99.90;;;;;;4994319;28;19914;-74
2023/03/25 14:36:29;;;;;;;;;;;10.80;99.90;;;;;;4994297;28;19909;-74
2023/03/25 14:38:56;;;;;;;;;;;10.70;98.60;;;;;;4994622;28;19909;-74